createdAt,value
2019-02-27T00:00:09.175Z,78.06
2019-02-27T00:01:08.718Z,77.37
2019-02-27T00:02:08.720Z,77.78
2019-02-27T00:03:08.693Z,78.20
2019-02-27T00:04:08.700Z,77.58
2019-02-27T00:05:08.995Z,77.89
2019-02-27T00:06:08.663Z,78.09
2019-02-27T00:07:08.656Z,78.20
2019-02-27T00:08:08.663Z,77.47
2019-02-27T00:09:08.630Z,77.78
2019-02-27T00:10:08.624Z,77.89
2019-02-27T00:11:09.994Z,77.37
2019-02-27T00:12:08.599Z,77.58
2019-02-27T00:13:08.587Z,78.20
2019-02-27T00:14:08.599Z,77.78
2019-02-27T00:15:08.567Z,78.23
2019-02-27T00:16:10.842Z,78.51
2019-02-27T00:17:08.550Z,78.20
2019-02-27T00:18:08.539Z,78.44
2019-02-27T00:19:08.543Z,78.34
2019-02-27T00:20:08.519Z,78.75
2019-02-27T00:21:10.997Z,79.17
2019-02-27T00:22:08.492Z,78.44
2019-02-27T00:23:08.483Z,78.34
2019-02-27T00:24:08.492Z,78.13
2019-02-27T00:25:08.462Z,78.13
2019-02-27T00:26:08.976Z,79.17
2019-02-27T00:27:08.442Z,79.17
2019-02-27T00:28:08.437Z,79.48
2019-02-27T00:29:08.481Z,79.38
2019-02-27T00:30:08.410Z,78.96
2019-02-27T00:31:11.135Z,78.47
2019-02-27T00:32:08.391Z,78.78
2019-02-27T00:33:08.384Z,78.47
2019-02-27T00:34:08.394Z,78.99
2019-02-27T00:35:08.361Z,79.30
2019-02-27T00:36:12.039Z,78.27
2019-02-27T00:37:08.342Z,79.10
2019-02-27T00:38:08.339Z,79.10
2019-02-27T00:39:08.322Z,78.99
2019-02-27T00:40:08.329Z,78.99
2019-02-27T00:41:11.888Z,79.10
2019-02-27T00:42:08.294Z,79.10
2019-02-27T00:43:08.289Z,78.99
2019-02-27T00:44:08.283Z,78.99
2019-02-27T00:45:08.286Z,78.99
2019-02-27T00:46:08.249Z,79.51
2019-02-27T00:47:08.240Z,78.78
2019-02-27T00:48:08.239Z,78.78
2019-02-27T00:49:08.221Z,78.89
2019-02-27T00:50:08.250Z,79.51
2019-02-27T00:51:09.659Z,78.99
2019-02-27T00:52:08.188Z,79.10
2019-02-27T00:53:08.183Z,78.99
2019-02-27T00:54:08.166Z,79.20
2019-02-27T00:55:08.165Z,78.68
2019-02-27T00:56:11.997Z,79.24
2019-02-27T00:57:08.134Z,78.82
2019-02-27T00:58:08.130Z,78.82
2019-02-27T00:59:08.115Z,79.55
2019-02-27T01:00:08.101Z,78.92
2019-02-27T01:01:10.009Z,79.55
2019-02-27T01:02:08.080Z,80.18
2019-02-27T01:03:08.074Z,80.80
2019-02-27T01:04:08.066Z,80.59
2019-02-27T01:05:09.095Z,80.49
2019-02-27T01:06:08.064Z,79.86
2019-02-27T01:07:08.031Z,78.92
2019-02-27T01:08:08.021Z,79.03
2019-02-27T01:09:08.014Z,79.03
2019-02-27T01:10:12.036Z,79.06
2019-02-27T01:11:08.007Z,79.86
2019-02-27T01:12:07.977Z,79.65
2019-02-27T01:13:07.985Z,79.58
2019-02-27T01:14:07.957Z,79.48
2019-02-27T01:15:10.618Z,79.17
2019-02-27T01:16:07.956Z,79.80
2019-02-27T01:17:07.944Z,79.69
2019-02-27T01:18:07.915Z,79.48
2019-02-27T01:19:07.905Z,80.00
2019-02-27T01:20:11.165Z,79.69
2019-02-27T01:21:07.931Z,79.90
2019-02-27T01:22:07.877Z,79.69
2019-02-27T01:23:10.911Z,79.48
2019-02-27T01:24:07.854Z,79.90
2019-02-27T01:25:07.862Z,80.52
2019-02-27T01:26:07.853Z,79.52
2019-02-27T01:27:07.826Z,79.90
2019-02-27T01:28:10.839Z,79.80
2019-02-27T01:29:07.802Z,79.52
2019-02-27T01:30:07.813Z,79.94
2019-02-27T01:31:07.808Z,79.52
2019-02-27T01:32:07.771Z,80.42
2019-02-27T01:33:07.762Z,80.73
2019-02-27T01:34:11.188Z,80.87
2019-02-27T01:35:07.743Z,80.98
2019-02-27T01:36:07.752Z,80.98
2019-02-27T01:37:07.722Z,81.08
2019-02-27T01:38:07.714Z,81.08
2019-02-27T01:39:08.923Z,80.98
2019-02-27T01:40:07.749Z,80.56
2019-02-27T01:41:07.715Z,80.56
2019-02-27T01:42:07.679Z,80.46
2019-02-27T01:43:07.660Z,81.49
2019-02-27T01:44:07.649Z,81.91
2019-02-27T01:45:07.640Z,81.43
2019-02-27T01:46:07.649Z,81.22
2019-02-27T01:47:07.623Z,81.43
2019-02-27T01:48:09.308Z,81.32
2019-02-27T01:49:07.597Z,81.95
2019-02-27T01:50:07.593Z,81.98
2019-02-27T01:51:07.597Z,82.05
2019-02-27T01:52:07.569Z,82.30
2019-02-27T01:53:08.101Z,82.46
2019-02-27T01:54:07.553Z,82.26
2019-02-27T01:55:07.539Z,81.95
2019-02-27T01:56:07.547Z,82.20
2019-02-27T01:57:07.517Z,82.15
2019-02-27T01:58:09.571Z,82.15
2019-02-27T01:59:07.507Z,81.84
2019-02-27T02:00:07.488Z,81.88
2019-02-27T02:01:07.498Z,81.67
2019-02-27T02:02:07.468Z,81.57
2019-02-27T02:03:07.459Z,81.67
2019-02-27T02:04:07.447Z,82.30
2019-02-27T02:05:07.436Z,82.30
2019-02-27T02:06:07.449Z,82.40
2019-02-27T02:07:07.537Z,81.98
2019-02-27T02:08:07.412Z,81.77
2019-02-27T02:09:07.397Z,81.98
2019-02-27T02:10:07.388Z,81.88
2019-02-27T02:11:07.402Z,81.95
2019-02-27T02:12:08.633Z,82.05
2019-02-27T02:13:07.357Z,81.57
2019-02-27T02:14:07.346Z,81.77
2019-02-27T02:15:07.337Z,81.36
2019-02-27T02:16:07.348Z,81.36
2019-02-27T02:17:07.467Z,81.32
2019-02-27T02:18:07.304Z,81.26
2019-02-27T02:19:07.297Z,81.26
2019-02-27T02:20:07.284Z,81.46
2019-02-27T02:21:07.320Z,81.57
2019-02-27T02:22:08.910Z,81.77
2019-02-27T02:23:07.256Z,81.46
2019-02-27T02:24:07.249Z,81.15
2019-02-27T02:25:07.236Z,81.36
2019-02-27T02:26:07.240Z,81.57
2019-02-27T02:27:08.228Z,81.46
2019-02-27T02:28:07.208Z,81.46
2019-02-27T02:29:07.224Z,81.57
2019-02-27T02:30:07.191Z,81.26
2019-02-27T02:31:07.178Z,81.26
2019-02-27T02:32:07.210Z,81.36
2019-02-27T02:33:07.160Z,81.88
2019-02-27T02:34:07.144Z,81.46
2019-02-27T02:35:07.158Z,80.84
2019-02-27T02:36:07.124Z,80.63
2019-02-27T02:37:07.116Z,81.05
2019-02-27T02:38:12.067Z,80.63
2019-02-27T02:39:08.093Z,80.53
2019-02-27T02:40:07.091Z,80.32
2019-02-27T02:41:08.452Z,80.63
2019-02-27T02:42:07.071Z,80.43
2019-02-27T02:43:07.075Z,81.15
2019-02-27T02:44:07.044Z,80.74
2019-02-27T02:45:07.034Z,80.74
2019-02-27T02:46:08.868Z,81.19
2019-02-27T02:47:07.018Z,81.05
2019-02-27T02:48:07.012Z,81.05
2019-02-27T02:49:08.527Z,80.57
2019-02-27T02:50:06.980Z,81.05
2019-02-27T02:51:06.969Z,81.40
2019-02-27T02:52:06.984Z,80.88
2019-02-27T02:53:06.963Z,80.94
2019-02-27T02:54:06.960Z,80.46
2019-02-27T02:55:11.923Z,80.46
2019-02-27T02:56:07.921Z,80.98
2019-02-27T02:57:06.907Z,80.77
2019-02-27T02:58:07.924Z,81.29
2019-02-27T02:59:06.934Z,81.09
2019-02-27T03:00:06.935Z,80.57
2019-02-27T03:01:06.869Z,80.67
2019-02-27T03:02:06.858Z,80.36
2019-02-27T03:03:06.858Z,80.67
2019-02-27T03:04:12.524Z,81.40
2019-02-27T03:05:07.872Z,80.88
2019-02-27T03:06:06.837Z,81.19
2019-02-27T03:07:07.197Z,80.88
2019-02-27T03:08:06.800Z,81.29
2019-02-27T03:09:06.788Z,81.29
2019-02-27T03:10:08.141Z,81.12
2019-02-27T03:11:06.789Z,81.43
2019-02-27T03:12:06.758Z,81.43
2019-02-27T03:13:07.424Z,81.33
2019-02-27T03:14:06.745Z,81.23
2019-02-27T03:15:06.729Z,81.54
2019-02-27T03:16:06.737Z,81.54
2019-02-27T03:17:06.707Z,81.85
2019-02-27T03:18:06.697Z,82.17
2019-02-27T03:19:06.702Z,82.51
2019-02-27T03:20:06.689Z,82.51
2019-02-27T03:21:06.687Z,82.51
2019-02-27T03:22:06.655Z,83.35
2019-02-27T03:23:06.649Z,83.56
2019-02-27T03:24:06.636Z,83.76
2019-02-27T03:25:06.631Z,84.18
2019-02-27T03:26:06.615Z,84.22
2019-02-27T03:27:06.634Z,84.81
2019-02-27T03:28:06.604Z,84.33
2019-02-27T03:29:06.594Z,84.43
2019-02-27T03:30:06.575Z,84.64
2019-02-27T03:31:15.954Z,85.89
2019-02-27T03:32:07.592Z,87.24
2019-02-27T03:33:06.549Z,87.45
2019-02-27T03:34:09.153Z,87.14
2019-02-27T03:35:06.591Z,87.04
2019-02-27T03:36:06.524Z,86.51
2019-02-27T03:37:06.536Z,89.01
2019-02-27T03:38:06.514Z,88.91
2019-02-27T03:39:06.487Z,88.18
2019-02-27T03:40:10.915Z,87.76
2019-02-27T03:41:07.470Z,87.87
2019-02-27T03:42:06.455Z,87.62
2019-02-27T03:43:10.018Z,88.49
2019-02-27T03:44:06.434Z,88.24
2019-02-27T03:45:06.434Z,88.56
2019-02-27T03:46:07.189Z,90.68
2019-02-27T03:47:06.404Z,92.00
2019-02-27T03:48:06.417Z,92.72
2019-02-27T03:49:06.405Z,90.75
2019-02-27T03:50:06.378Z,90.75
2019-02-27T03:51:06.384Z,91.02
2019-02-27T03:52:06.361Z,90.08
2019-02-27T03:53:10.773Z,91.12
2019-02-27T03:54:06.346Z,88.89
2019-02-27T03:55:06.325Z,89.83
2019-02-27T03:56:09.763Z,91.77
2019-02-27T03:57:06.306Z,93.43
2019-02-27T03:58:06.288Z,93.70
2019-02-27T03:59:07.489Z,94.01
2019-02-27T04:00:06.266Z,91.99
2019-02-27T04:01:06.262Z,91.27
2019-02-27T04:02:06.947Z,91.99
2019-02-27T04:03:18.228Z,91.78
2019-02-27T04:04:06.241Z,91.47
2019-02-27T04:05:07.459Z,91.16
2019-02-27T04:06:06.208Z,91.53
2019-02-27T04:07:06.216Z,91.64
2019-02-27T04:08:08.574Z,91.85
2019-02-27T04:09:06.184Z,91.58
2019-02-27T04:10:06.176Z,92.36
2019-02-27T04:11:06.843Z,91.64
2019-02-27T04:12:06.146Z,91.33
2019-02-27T04:13:06.136Z,91.43
2019-02-27T04:14:06.125Z,91.43
2019-02-27T04:15:06.141Z,90.60
2019-02-27T04:16:06.130Z,90.29
2019-02-27T04:17:07.500Z,90.91
2019-02-27T04:18:06.084Z,88.21
2019-02-27T04:19:06.073Z,86.80
2019-02-27T04:20:06.077Z,88.15
2019-02-27T04:21:06.079Z,88.56
2019-02-27T04:22:06.042Z,88.15
2019-02-27T04:23:11.459Z,88.29
2019-02-27T04:24:07.024Z,88.46
2019-02-27T04:25:06.011Z,88.04
2019-02-27T04:26:06.710Z,89.43
2019-02-27T04:27:06.013Z,88.09
2019-02-27T04:28:06.004Z,90.89
2019-02-27T04:29:08.402Z,91.52
2019-02-27T04:30:05.960Z,88.09
2019-02-27T04:31:05.950Z,88.29
2019-02-27T04:32:05.980Z,88.60
2019-02-27T04:33:05.937Z,88.81
2019-02-27T04:34:05.931Z,88.71
2019-02-27T04:35:06.819Z,89.33
2019-02-27T04:36:05.899Z,91.87
2019-02-27T04:37:05.893Z,92.76
2019-02-27T04:38:05.902Z,91.52
2019-02-27T04:39:05.872Z,92.82
2019-02-27T04:40:05.871Z,92.51
2019-02-27T04:41:05.855Z,91.89
2019-02-27T04:42:05.870Z,91.47
2019-02-27T04:43:05.844Z,90.85
2019-02-27T04:44:06.201Z,91.78
2019-02-27T04:45:05.814Z,90.44
2019-02-27T04:46:05.806Z,89.81
2019-02-27T04:47:05.797Z,90.44
2019-02-27T04:48:05.830Z,90.02
2019-02-27T04:49:05.781Z,88.87
2019-02-27T04:50:05.766Z,89.67
2019-02-27T04:51:05.758Z,90.60
2019-02-27T04:52:05.746Z,90.85
2019-02-27T04:53:05.759Z,91.02
2019-02-27T04:54:07.316Z,91.22
2019-02-27T04:55:05.715Z,91.33
2019-02-27T04:56:05.709Z,91.33
2019-02-27T04:57:05.686Z,91.33
2019-02-27T04:58:08.613Z,91.06
2019-02-27T04:59:05.673Z,90.60
2019-02-27T05:00:05.663Z,89.77
2019-02-27T05:01:05.647Z,90.91
2019-02-27T05:02:05.637Z,90.95
2019-02-27T05:03:05.628Z,91.47
2019-02-27T05:04:05.641Z,91.47
2019-02-27T05:05:06.136Z,91.27
2019-02-27T05:06:05.598Z,91.47
2019-02-27T05:07:05.584Z,91.78
2019-02-27T05:08:05.580Z,90.54
2019-02-27T05:09:05.597Z,89.60
2019-02-27T05:10:07.247Z,90.95
2019-02-27T05:11:05.553Z,90.95
2019-02-27T05:12:05.538Z,90.95
2019-02-27T05:13:05.525Z,90.33
2019-02-27T05:14:05.564Z,89.92
2019-02-27T05:15:05.527Z,91.06
2019-02-27T05:16:05.506Z,90.44
2019-02-27T05:17:05.490Z,91.47
2019-02-27T05:18:05.482Z,91.52
2019-02-27T05:19:05.523Z,91.62
2019-02-27T05:20:05.485Z,90.85
2019-02-27T05:21:05.453Z,90.95
2019-02-27T05:22:05.438Z,90.58
2019-02-27T05:23:05.431Z,90.85
2019-02-27T05:24:07.858Z,88.60
2019-02-27T05:25:05.422Z,90.44
2019-02-27T05:26:05.409Z,88.98
2019-02-27T05:27:05.390Z,91.06
2019-02-27T05:28:05.400Z,89.92
2019-02-27T05:29:05.658Z,89.70
2019-02-27T05:30:05.384Z,88.67
2019-02-27T05:31:05.385Z,87.73
2019-02-27T05:32:05.346Z,86.69
2019-02-27T05:33:05.345Z,88.29
2019-02-27T05:34:05.318Z,88.56
2019-02-27T05:35:05.324Z,88.35
2019-02-27T05:36:05.296Z,87.84
2019-02-27T05:37:06.023Z,89.60
2019-02-27T05:38:05.276Z,90.47
2019-02-27T05:39:05.285Z,89.70
2019-02-27T05:40:05.280Z,90.33
2019-02-27T05:41:05.254Z,89.81
2019-02-27T05:42:06.307Z,90.47
2019-02-27T05:43:05.227Z,90.85
2019-02-27T05:44:05.238Z,90.85
2019-02-27T05:45:05.204Z,90.33
2019-02-27T05:46:05.217Z,90.23
2019-02-27T05:47:05.195Z,90.85
2019-02-27T05:48:05.176Z,90.54
2019-02-27T05:49:05.179Z,90.64
2019-02-27T05:50:05.156Z,89.29
2019-02-27T05:51:07.679Z,90.08
2019-02-27T05:52:05.144Z,89.46
2019-02-27T05:53:05.124Z,89.67
2019-02-27T05:54:05.110Z,90.39
2019-02-27T05:55:06.426Z,89.67
2019-02-27T05:56:05.090Z,89.36
2019-02-27T05:57:05.099Z,88.84
2019-02-27T05:58:05.068Z,88.73
2019-02-27T05:59:05.059Z,89.87
2019-02-27T06:00:07.000Z,87.96
2019-02-27T06:01:05.789Z,89.04
2019-02-27T06:02:05.048Z,89.04
2019-02-27T06:03:05.020Z,89.25
2019-02-27T06:04:05.008Z,88.84
2019-02-27T06:05:04.997Z,88.38
2019-02-27T06:06:06.707Z,87.65
2019-02-27T06:07:04.994Z,88.38
2019-02-27T06:08:04.967Z,88.38
2019-02-27T06:09:04.956Z,88.79
2019-02-27T06:10:05.027Z,88.28
2019-02-27T06:11:04.937Z,89.00
2019-02-27T06:12:06.879Z,89.62
2019-02-27T06:13:04.915Z,89.00
2019-02-27T06:14:04.904Z,88.52
2019-02-27T06:15:04.903Z,85.57
2019-02-27T06:16:08.853Z,87.38
2019-02-27T06:17:04.892Z,88.62
2019-02-27T06:18:04.864Z,88.28
2019-02-27T06:19:04.863Z,89.31
2019-02-27T06:20:07.658Z,89.15
2019-02-27T06:21:04.835Z,88.07
2019-02-27T06:22:05.931Z,89.11
2019-02-27T06:23:05.061Z,88.42
2019-02-27T06:24:04.813Z,88.42
2019-02-27T06:25:04.795Z,87.90
2019-02-27T06:26:04.801Z,87.69
2019-02-27T06:27:06.275Z,88.48
2019-02-27T06:28:04.767Z,88.38
2019-02-27T06:29:04.753Z,88.59
2019-02-27T06:30:04.742Z,88.07
2019-02-27T06:31:04.740Z,87.76
2019-02-27T06:32:04.741Z,83.81
2019-02-27T06:33:04.733Z,87.65
2019-02-27T06:34:04.702Z,87.65
2019-02-27T06:35:04.692Z,87.96
2019-02-27T06:36:05.315Z,87.59
2019-02-27T06:37:04.698Z,88.07
2019-02-27T06:38:04.670Z,86.76
2019-02-27T06:39:04.653Z,87.55
2019-02-27T06:40:07.128Z,88.21
2019-02-27T06:41:04.636Z,87.45
2019-02-27T06:42:04.707Z,86.61
2019-02-27T06:43:04.610Z,85.57
2019-02-27T06:44:04.600Z,85.41
2019-02-27T06:45:04.590Z,85.47
2019-02-27T06:46:04.580Z,87.86
2019-02-27T06:47:06.954Z,87.96
2019-02-27T06:48:09.464Z,88.07
2019-02-27T06:49:05.557Z,86.72
2019-02-27T06:50:04.539Z,87.61
2019-02-27T06:51:04.530Z,86.57
2019-02-27T06:52:08.981Z,87.71
2019-02-27T06:53:05.528Z,86.88
2019-02-27T06:54:04.497Z,86.93
2019-02-27T06:55:04.487Z,87.61
2019-02-27T06:56:04.477Z,87.40
2019-02-27T06:57:07.505Z,87.61
2019-02-27T06:58:04.482Z,87.71
2019-02-27T06:59:04.446Z,87.71
2019-02-27T07:00:04.436Z,86.57
2019-02-27T07:01:07.149Z,85.12
2019-02-27T07:02:05.416Z,86.47
2019-02-27T07:03:04.405Z,85.33
2019-02-27T07:04:04.777Z,85.53
2019-02-27T07:05:04.388Z,85.33
2019-02-27T07:06:04.388Z,85.22
2019-02-27T07:07:04.362Z,83.98
2019-02-27T07:08:05.213Z,85.22
2019-02-27T07:09:04.366Z,83.46
2019-02-27T07:10:04.345Z,85.12
2019-02-27T07:11:10.863Z,85.33
2019-02-27T07:12:07.117Z,84.25
2019-02-27T07:13:04.301Z,83.53
2019-02-27T07:14:04.290Z,83.73
2019-02-27T07:15:04.306Z,85.60
2019-02-27T07:16:04.271Z,85.60
2019-02-27T07:17:04.259Z,83.73
2019-02-27T07:18:06.212Z,85.91
2019-02-27T07:19:04.252Z,85.19
2019-02-27T07:20:11.790Z,84.25
2019-02-27T07:21:04.231Z,84.63
2019-02-27T07:22:06.276Z,84.31
2019-02-27T07:23:04.200Z,81.72
2019-02-27T07:24:04.195Z,82.45
2019-02-27T07:25:06.706Z,83.48
2019-02-27T07:26:04.178Z,82.97
2019-02-27T07:27:04.174Z,82.34
2019-02-27T07:28:08.469Z,81.41
2019-02-27T07:29:04.139Z,81.20
2019-02-27T07:30:04.859Z,82.55
2019-02-27T07:31:04.120Z,80.68
2019-02-27T07:32:04.113Z,81.51
2019-02-27T07:33:06.708Z,79.55
2019-02-27T07:34:04.089Z,80.85
2019-02-27T07:35:04.106Z,80.65
2019-02-27T07:36:04.239Z,80.75
2019-02-27T07:37:04.058Z,77.78
2019-02-27T07:38:04.056Z,81.16
2019-02-27T07:39:04.039Z,80.44
2019-02-27T07:40:08.021Z,80.96
2019-02-27T07:41:04.048Z,80.33
2019-02-27T07:42:04.006Z,78.89
2019-02-27T07:43:05.762Z,79.41
2019-02-27T07:44:03.985Z,80.23
2019-02-27T07:45:03.974Z,77.33
2019-02-27T07:46:04.080Z,80.75
2019-02-27T07:47:03.959Z,79.99
2019-02-27T07:48:03.945Z,80.75
2019-02-27T07:49:03.939Z,77.29
2019-02-27T07:50:06.217Z,79.78
2019-02-27T07:51:03.951Z,78.64
2019-02-27T07:52:03.907Z,75.95
2019-02-27T07:53:03.897Z,79.27
2019-02-27T07:54:04.061Z,80.82
2019-02-27T07:55:15.452Z,79.68
2019-02-27T07:56:04.895Z,79.58
2019-02-27T07:57:03.855Z,78.33
2019-02-27T07:58:03.841Z,79.78
2019-02-27T07:59:03.830Z,76.36
2019-02-27T08:00:03.826Z,76.95
2019-02-27T08:01:04.634Z,76.46
2019-02-27T08:02:03.829Z,77.40
2019-02-27T08:03:03.789Z,77.81
2019-02-27T08:04:03.779Z,78.81
2019-02-27T08:05:03.773Z,79.33
2019-02-27T08:06:03.757Z,78.71
2019-02-27T08:07:03.765Z,78.71
2019-02-27T08:08:03.737Z,77.64
2019-02-27T08:09:03.727Z,75.98
2019-02-27T08:10:04.698Z,77.22
2019-02-27T08:11:03.705Z,77.22
2019-02-27T08:12:03.717Z,77.12
2019-02-27T08:13:03.682Z,77.12
2019-02-27T08:14:03.957Z,76.67
2019-02-27T08:15:03.664Z,77.19
2019-02-27T08:16:03.653Z,78.02
2019-02-27T08:17:03.657Z,78.91
2019-02-27T08:18:03.659Z,77.33
2019-02-27T08:19:03.617Z,75.81
2019-02-27T08:20:03.616Z,74.53
2019-02-27T08:21:03.594Z,76.81
2019-02-27T08:22:03.606Z,76.43
2019-02-27T08:23:03.573Z,75.88
2019-02-27T08:24:07.484Z,75.46
2019-02-27T08:25:03.551Z,77.12
2019-02-27T08:26:05.104Z,79.80
2019-02-27T08:27:03.529Z,78.67
2019-02-27T08:28:03.538Z,75.98
2019-02-27T08:29:03.510Z,75.63
2019-02-27T08:30:03.499Z,74.63
2019-02-27T08:31:03.489Z,74.22
2019-02-27T08:32:05.420Z,73.57
2019-02-27T08:33:08.159Z,75.78
2019-02-27T08:34:04.454Z,77.08
2019-02-27T08:35:03.460Z,76.98
2019-02-27T08:36:03.436Z,77.15
2019-02-27T08:37:03.425Z,75.70
2019-02-27T08:38:03.441Z,76.43
2019-02-27T08:39:03.399Z,76.50
2019-02-27T08:40:03.389Z,75.36
2019-02-27T08:41:03.378Z,74.29
2019-02-27T08:42:04.080Z,74.60
2019-02-27T08:43:03.379Z,74.60
2019-02-27T08:44:03.382Z,71.68
2019-02-27T08:45:03.335Z,73.98
2019-02-27T08:46:03.329Z,74.26
2019-02-27T08:47:04.261Z,75.60
2019-02-27T08:48:03.306Z,72.88
2019-02-27T08:49:03.310Z,74.02
2019-02-27T08:50:03.282Z,74.84
2019-02-27T08:51:08.386Z,73.47
2019-02-27T08:52:04.260Z,73.23
2019-02-27T08:53:03.250Z,71.17
2019-02-27T08:54:03.257Z,72.41
2019-02-27T08:55:05.709Z,71.86
2019-02-27T08:56:03.222Z,70.21
2019-02-27T08:57:03.213Z,70.48
2019-02-27T08:58:03.197Z,70.38
2019-02-27T08:59:05.824Z,71.72
2019-02-27T09:00:03.177Z,71.28
2019-02-27T09:01:03.166Z,70.66
2019-02-27T09:02:03.155Z,69.90
2019-02-27T09:03:03.743Z,68.57
2019-02-27T09:04:03.159Z,68.05
2019-02-27T09:05:03.132Z,69.56
2019-02-27T09:06:03.115Z,67.61
2019-02-27T09:07:03.543Z,67.58
2019-02-27T09:08:03.094Z,69.32
2019-02-27T09:09:03.111Z,67.58
2019-02-27T09:10:03.071Z,67.99
2019-02-27T09:11:06.654Z,70.84
2019-02-27T09:12:03.227Z,67.76
2019-02-27T09:13:05.884Z,64.57
2019-02-27T09:14:03.033Z,66.22
2019-02-27T09:15:03.046Z,66.49
2019-02-27T09:16:03.011Z,66.77
2019-02-27T09:17:03.005Z,67.28
2019-02-27T09:18:02.988Z,66.77
2019-02-27T09:19:02.984Z,67.38
2019-02-27T09:20:02.983Z,66.02
2019-02-27T09:21:02.964Z,65.27
2019-02-27T09:22:03.110Z,64.76
2019-02-27T09:23:02.933Z,63.81
2019-02-27T09:24:02.925Z,62.68
2019-02-27T09:25:02.935Z,64.32
2019-02-27T09:26:03.527Z,62.88
2019-02-27T09:27:02.902Z,63.26
2019-02-27T09:28:03.574Z,63.17
2019-02-27T09:29:02.876Z,62.65
2019-02-27T09:30:02.907Z,60.19
2019-02-27T09:31:04.314Z,62.01
2019-02-27T09:32:02.842Z,61.01
2019-02-27T09:33:02.844Z,61.70
2019-02-27T09:34:02.819Z,59.86
2019-02-27T09:35:02.852Z,60.99
2019-02-27T09:36:02.809Z,61.98
2019-02-27T09:37:02.787Z,59.63
2019-02-27T09:38:02.775Z,57.58
2019-02-27T09:39:02.765Z,59.30
2019-02-27T09:40:05.750Z,58.78
2019-02-27T09:41:03.348Z,59.80
2019-02-27T09:42:02.740Z,60.62
2019-02-27T09:43:02.724Z,61.13
2019-02-27T09:44:02.714Z,59.37
2019-02-27T09:45:02.700Z,56.81
2019-02-27T09:46:02.711Z,57.40
2019-02-27T09:47:02.691Z,58.01
2019-02-27T09:48:02.669Z,57.91
2019-02-27T09:49:06.860Z,55.99
2019-02-27T09:50:02.648Z,57.40
2019-02-27T09:51:02.660Z,55.97
2019-02-27T09:52:02.629Z,56.25
2019-02-27T09:53:03.514Z,57.07
2019-02-27T09:54:02.607Z,58.19
2019-02-27T09:55:02.596Z,56.04
2019-02-27T09:56:02.612Z,53.70
2019-02-27T09:57:02.895Z,54.69
2019-02-27T09:58:02.575Z,54.18
2019-02-27T09:59:02.556Z,53.36
2019-02-27T10:00:02.993Z,55.07
2019-02-27T10:01:03.247Z,56.81
2019-02-27T10:02:02.527Z,53.64
2019-02-27T10:03:02.516Z,56.20
2019-02-27T10:04:02.504Z,55.18
2019-02-27T10:05:03.728Z,52.83
2019-02-27T10:06:02.502Z,52.42
2019-02-27T10:07:02.472Z,53.14
2019-02-27T10:08:02.457Z,52.32
2019-02-27T10:09:02.446Z,53.03
2019-02-27T10:10:02.438Z,55.69
2019-02-27T10:11:02.449Z,55.87
2019-02-27T10:12:02.414Z,53.22
2019-02-27T10:13:03.289Z,55.76
2019-02-27T10:14:02.413Z,55.89
2019-02-27T10:15:02.390Z,52.60
2019-02-27T10:16:03.715Z,55.15
2019-02-27T10:17:02.367Z,53.92
2019-02-27T10:18:02.354Z,54.33
2019-02-27T10:19:02.352Z,56.07
2019-02-27T10:20:02.861Z,54.03
2019-02-27T10:21:02.325Z,51.58
2019-02-27T10:22:02.335Z,53.09
2019-02-27T10:23:02.297Z,51.66
2019-02-27T10:24:04.494Z,51.46
2019-02-27T10:25:02.280Z,52.04
2019-02-27T10:26:02.270Z,52.76
2019-02-27T10:27:02.306Z,54.49
2019-02-27T10:28:04.307Z,55.00
2019-02-27T10:29:02.251Z,54.79
2019-02-27T10:30:11.090Z,53.47
2019-02-27T10:31:03.212Z,52.73
2019-02-27T10:32:02.232Z,50.19
2019-02-27T10:33:03.384Z,51.92
2019-02-27T10:34:02.184Z,54.13
2019-02-27T10:35:02.176Z,53.96
2019-02-27T10:36:03.632Z,53.85
2019-02-27T10:37:02.251Z,54.05
2019-02-27T10:38:02.149Z,53.93
2019-02-27T10:39:02.816Z,55.86
2019-02-27T10:40:02.122Z,55.25
2019-02-27T10:41:02.109Z,51.16
2019-02-27T10:42:02.138Z,50.04
2019-02-27T10:43:02.087Z,49.02
2019-02-27T10:44:02.076Z,52.78
2019-02-27T10:45:02.076Z,53.17
2019-02-27T10:46:02.061Z,50.42
2019-02-27T10:47:02.075Z,50.32
2019-02-27T10:48:02.036Z,52.56
2019-02-27T10:49:02.028Z,51.11
2019-02-27T10:50:02.878Z,49.48
2019-02-27T10:51:02.019Z,50.60
2019-02-27T10:52:02.019Z,51.42
2019-02-27T10:53:01.979Z,51.59
2019-02-27T10:54:05.140Z,50.27
2019-02-27T10:55:01.963Z,50.07
2019-02-27T10:56:01.967Z,52.91
2019-02-27T10:57:01.940Z,53.02
2019-02-27T10:58:01.955Z,53.52
2019-02-27T10:59:01.917Z,52.89
2019-02-27T11:00:01.918Z,46.70
2019-02-27T11:01:01.899Z,50.15
2019-02-27T11:02:01.885Z,46.29
2019-02-27T11:03:01.900Z,45.89
2019-02-27T11:04:03.134Z,51.77
2019-02-27T11:05:01.859Z,49.13
2019-02-27T11:06:01.842Z,51.14
2019-02-27T11:07:01.831Z,53.47
2019-02-27T11:08:01.821Z,50.93
2019-02-27T11:09:04.487Z,49.59
2019-02-27T11:10:01.807Z,49.59
2019-02-27T11:11:01.788Z,49.90
2019-02-27T11:12:01.780Z,50.40
2019-02-27T11:13:05.690Z,52.81
2019-02-27T11:14:01.789Z,52.61
2019-02-27T11:15:01.748Z,49.77
2019-02-27T11:16:01.735Z,46.71
2019-02-27T11:17:02.577Z,49.47
2019-02-27T11:18:05.390Z,46.71
2019-02-27T11:19:01.744Z,44.99
2019-02-27T11:20:01.699Z,47.52
2019-02-27T11:21:01.686Z,48.13
2019-02-27T11:22:01.673Z,50.56
2019-02-27T11:23:06.739Z,53.27
2019-02-27T11:24:02.677Z,49.32
2019-02-27T11:25:01.641Z,47.67
2019-02-27T11:26:01.631Z,48.99
2019-02-27T11:27:03.400Z,47.88
2019-02-27T11:28:01.623Z,52.74
2019-02-27T11:29:01.619Z,53.85
2019-02-27T11:30:03.072Z,51.62
2019-02-27T11:31:01.585Z,47.07
2019-02-27T11:32:01.570Z,45.73
2019-02-27T11:33:01.560Z,45.73
2019-02-27T11:34:01.570Z,44.82
2019-02-27T11:35:01.534Z,47.86
2019-02-27T11:36:03.205Z,47.86
2019-02-27T11:37:01.522Z,43.20
2019-02-27T11:38:01.501Z,45.83
2019-02-27T11:39:01.493Z,52.41
2019-02-27T11:40:02.388Z,52.21
2019-02-27T11:41:01.473Z,44.42
2019-02-27T11:42:01.462Z,44.90
2019-02-27T11:43:06.551Z,43.41
2019-02-27T11:44:02.439Z,42.80
2019-02-27T11:45:01.518Z,47.33
2019-02-27T11:46:01.459Z,46.42
2019-02-27T11:47:01.427Z,49.73
2019-02-27T11:48:01.427Z,50.74
2019-02-27T11:49:03.204Z,43.87
2019-02-27T11:50:02.390Z,46.91
2019-02-27T11:51:01.364Z,52.64
2019-02-27T11:52:01.364Z,45.97
2019-02-27T11:53:02.846Z,52.23
2019-02-27T11:54:01.332Z,43.55
2019-02-27T11:55:08.880Z,47.19
2019-02-27T11:56:01.314Z,41.73
2019-02-27T11:57:01.306Z,39.81
2019-02-27T11:58:04.415Z,43.75
2019-02-27T11:59:01.278Z,44.84
2019-02-27T12:00:01.292Z,53.32
2019-02-27T12:01:01.300Z,47.16
2019-02-27T12:02:01.269Z,44.23
2019-02-27T12:03:01.246Z,39.28
2019-02-27T12:04:01.223Z,40.30
2019-02-27T12:05:01.236Z,38.98
2019-02-27T12:06:01.242Z,44.76
2019-02-27T12:07:01.221Z,44.96
2019-02-27T12:08:01.189Z,44.96
2019-02-27T12:09:01.175Z,47.16
2019-02-27T12:10:01.185Z,47.16
2019-02-27T12:11:01.156Z,40.59
2019-02-27T12:12:01.138Z,38.88
2019-02-27T12:13:01.644Z,39.48
2019-02-27T12:14:01.118Z,38.98
2019-02-27T12:15:01.157Z,38.07
2019-02-27T12:16:01.108Z,40.80
2019-02-27T12:17:01.088Z,44.84
2019-02-27T12:18:01.827Z,44.92
2019-02-27T12:19:01.066Z,43.60
2019-02-27T12:20:01.064Z,42.19
2019-02-27T12:21:01.066Z,46.11
2019-02-27T12:22:01.032Z,48.50
2019-02-27T12:23:01.027Z,50.62
2019-02-27T12:24:01.014Z,49.52
2019-02-27T12:25:01.011Z,42.46
2019-02-27T12:26:02.495Z,41.93
2019-02-27T12:27:00.980Z,40.92
2019-02-27T12:28:00.969Z,43.44
2019-02-27T12:29:00.963Z,40.60
2019-02-27T12:30:02.748Z,43.73
2019-02-27T12:31:01.440Z,38.37
2019-02-27T12:32:00.922Z,37.38
2019-02-27T12:33:00.917Z,43.32
2019-02-27T12:34:03.260Z,40.12
2019-02-27T12:35:03.018Z,41.33
2019-02-27T12:36:00.904Z,48.86
2019-02-27T12:37:00.876Z,46.75
2019-02-27T12:38:00.868Z,48.06
2019-02-27T12:39:00.849Z,36.47
2019-02-27T12:40:00.846Z,36.49
2019-02-27T12:41:00.850Z,37.60
2019-02-27T12:42:00.816Z,38.20
2019-02-27T12:43:00.818Z,38.20
2019-02-27T12:44:00.794Z,47.86
2019-02-27T12:45:00.787Z,43.42
2019-02-27T12:46:01.631Z,39.90
2019-02-27T12:47:00.768Z,38.18
2019-02-27T12:48:00.770Z,37.98
2019-02-27T12:49:00.746Z,43.22
2019-02-27T12:50:00.736Z,40.99
2019-02-27T12:51:03.434Z,39.58
2019-02-27T12:52:01.449Z,35.85